AAL672 KTRI-KMCI
Flight info
| Callsign | AAL672 |
|---|---|
| Flight time | N/A |
| Altitude | 28000 |
| Route | VXV BWG FAM J98 SGF TYGER7 |
| Aircraft | B738/M-SDE2E3FGHIRWXY/LB1 |
Departure
| Time | 2026-04-18 14:32 |
|---|---|
| Airport | Tri-Cities Regional TN/VA Airport (KTRI) |
Arrival
| Time | N/A |
|---|---|
| Airport | Kansas City International Airport (KMCI) |
| Time | Latitude | Longitude | Altitude | Speed | Heading |
|---|---|---|---|---|---|
| 2026-04-18 14:17 | 36.48002 | -82.40653 | 1528 ft | 0 kts | 9° |
| 2026-04-18 14:24 | 36.47988 | -82.40655 | 1527 ft | 2 kts | 9° |
| 2026-04-18 14:24 | 36.47973 | -82.40659 | 1526 ft | 2 kts | 10° |
| 2026-04-18 14:24 | 36.47958 | -82.40662 | 1526 ft | 2 kts | 19° |
| 2026-04-18 14:25 | 36.47949 | -82.40669 | 1525 ft | 0 kts | 49° |
| 2026-04-18 14:25 | 36.47945 | -82.40676 | 1525 ft | 1 kts | 52° |
| 2026-04-18 14:25 | 36.47944 | -82.40676 | 1525 ft | 0 kts | 52° |
| 2026-04-18 14:27 | 36.47949 | -82.40670 | 1525 ft | 2 kts | 50° |
| 2026-04-18 14:27 | 36.47968 | -82.40644 | 1525 ft | 6 kts | 47° |
| 2026-04-18 14:27 | 36.48006 | -82.40592 | 1525 ft | 9 kts | 46° |
| 2026-04-18 14:27 | 36.48062 | -82.40527 | 1525 ft | 10 kts | 43° |
| 2026-04-18 14:28 | 36.48113 | -82.40467 | 1524 ft | 9 kts | 43° |
| 2026-04-18 14:28 | 36.48164 | -82.40409 | 1521 ft | 10 kts | 43° |
| 2026-04-18 14:28 | 36.48218 | -82.40341 | 1517 ft | 10 kts | 60° |
| 2026-04-18 14:28 | 36.48232 | -82.40259 | 1512 ft | 9 kts | 83° |
| 2026-04-18 14:29 | 36.48221 | -82.40183 | 1506 ft | 3 kts | 130° |
| 2026-04-18 14:29 | 36.48220 | -82.40183 | 1506 ft | 0 kts | 130° |
| 2026-04-18 14:30 | 36.48206 | -82.40161 | 1504 ft | 7 kts | 130° |
| 2026-04-18 14:30 | 36.48152 | -82.40097 | 1500 ft | 11 kts | 166° |
| 2026-04-18 14:31 | 36.48112 | -82.40118 | 1501 ft | 0 kts | 222° |
| 2026-04-18 14:31 | 36.48046 | -82.40192 | 1504 ft | 44 kts | 223° |
| 2026-04-18 14:31 | 36.47613 | -82.40683 | 1509 ft | 119 kts | 223° |
| 2026-04-18 14:31 | 36.46836 | -82.41567 | 1496 ft | 178 kts | 223° |
| 2026-04-18 14:32 | 36.45897 | -82.42648 | 2142 ft | 184 kts | 223° |
| 2026-04-18 14:32 | 36.44965 | -82.43731 | 2900 ft | 187 kts | 223° |
| 2026-04-18 14:32 | 36.43963 | -82.44925 | 3238 ft | 208 kts | 231° |
| 2026-04-18 14:32 | 36.43223 | -82.46599 | 3507 ft | 230 kts | 249° |
| 2026-04-18 14:33 | 36.42577 | -82.48459 | 4121 ft | 241 kts | 247° |
| 2026-04-18 14:33 | 36.41854 | -82.50474 | 4692 ft | 256 kts | 247° |
| 2026-04-18 14:33 | 36.41132 | -82.52537 | 5473 ft | 261 kts | 247° |
| 2026-04-18 14:33 | 36.40414 | -82.54643 | 6256 ft | 266 kts | 246° |
| 2026-04-18 14:34 | 36.39698 | -82.56735 | 7090 ft | 267 kts | 245° |
| 2026-04-18 14:34 | 36.38934 | -82.58851 | 7913 ft | 268 kts | 244° |
| 2026-04-18 14:34 | 36.38151 | -82.60927 | 8689 ft | 271 kts | 244° |
| 2026-04-18 14:34 | 36.37453 | -82.63095 | 9459 ft | 274 kts | 258° |
| 2026-04-18 14:35 | 36.37529 | -82.65490 | 10283 ft | 277 kts | 280° |
| 2026-04-18 14:35 | 36.37985 | -82.67872 | 10737 ft | 291 kts | 281° |
| 2026-04-18 14:35 | 36.38466 | -82.70455 | 10816 ft | 317 kts | 281° |
| 2026-04-18 14:35 | 36.38970 | -82.73286 | 10900 ft | 341 kts | 280° |
| 2026-04-18 14:36 | 36.39492 | -82.76276 | 10971 ft | 363 kts | 280° |
| 2026-04-18 14:36 | 36.40051 | -82.79508 | 11201 ft | 379 kts | 280° |
| 2026-04-18 14:36 | 36.40606 | -82.82732 | 11995 ft | 377 kts | 280° |
| 2026-04-18 14:36 | 36.41203 | -82.86217 | 12554 ft | 384 kts | 280° |
| 2026-04-18 14:37 | 36.41774 | -82.89525 | 13460 ft | 378 kts | 280° |
| 2026-04-18 14:37 | 36.42339 | -82.92823 | 13860 ft | 387 kts | 280° |
| 2026-04-18 14:37 | 36.42903 | -82.96126 | 14545 ft | 387 kts | 280° |
| 2026-04-18 14:37 | 36.43487 | -82.99556 | 15009 ft | 393 kts | 280° |
| 2026-04-18 14:38 | 36.44106 | -83.03191 | 15736 ft | 393 kts | 280° |
| 2026-04-18 14:38 | 36.44707 | -83.06736 | 16236 ft | 397 kts | 280° |
| 2026-04-18 14:38 | 36.45281 | -83.10133 | 16766 ft | 400 kts | 280° |
| 2026-04-18 14:38 | 36.45866 | -83.13585 | 17283 ft | 402 kts | 280° |
| 2026-04-18 14:39 | 36.46478 | -83.17218 | 17786 ft | 406 kts | 279° |
| 2026-04-18 14:39 | 36.47072 | -83.20757 | 18255 ft | 409 kts | 280° |
| 2026-04-18 14:39 | 36.47699 | -83.24498 | 18805 ft | 410 kts | 280° |
| 2026-04-18 14:39 | 36.48301 | -83.28096 | 19285 ft | 413 kts | 280° |
| 2026-04-18 14:40 | 36.48886 | -83.31602 | 19765 ft | 415 kts | 280° |
| 2026-04-18 14:40 | 36.49483 | -83.35171 | 20262 ft | 416 kts | 280° |
| 2026-04-18 14:40 | 36.50114 | -83.38961 | 20764 ft | 418 kts | 280° |
| 2026-04-18 14:40 | 36.50761 | -83.42857 | 21219 ft | 421 kts | 280° |
| 2026-04-18 14:41 | 36.51391 | -83.46660 | 21714 ft | 422 kts | 280° |
| 2026-04-18 14:41 | 36.52048 | -83.50626 | 22128 ft | 425 kts | 280° |
| 2026-04-18 14:41 | 36.52654 | -83.54295 | 22566 ft | 426 kts | 280° |
| 2026-04-18 14:41 | 36.53260 | -83.57969 | 22975 ft | 427 kts | 280° |
| 2026-04-18 14:42 | 36.53865 | -83.61645 | 23352 ft | 429 kts | 280° |
| 2026-04-18 14:42 | 36.54480 | -83.65383 | 23769 ft | 430 kts | 280° |
| 2026-04-18 14:42 | 36.55080 | -83.69070 | 24163 ft | 431 kts | 279° |
| 2026-04-18 14:42 | 36.55685 | -83.72787 | 24676 ft | 430 kts | 280° |
| 2026-04-18 14:43 | 36.56288 | -83.76492 | 25190 ft | 428 kts | 280° |
| 2026-04-18 14:43 | 36.56889 | -83.80191 | 25684 ft | 427 kts | 280° |
| 2026-04-18 14:43 | 36.57489 | -83.83883 | 26212 ft | 424 kts | 280° |
| 2026-04-18 14:43 | 36.58083 | -83.87547 | 26692 ft | 423 kts | 280° |
| 2026-04-18 14:44 | 36.58669 | -83.91177 | 27199 ft | 421 kts | 280° |
| 2026-04-18 14:44 | 36.59255 | -83.94807 | 27645 ft | 420 kts | 280° |
| 2026-04-18 14:44 | 36.59840 | -83.98431 | 28060 ft | 417 kts | 280° |
| 2026-04-18 14:45 | 36.61010 | -84.05649 | 28064 ft | 415 kts | 280° |
| 2026-04-18 14:45 | 36.62153 | -84.12778 | 28044 ft | 413 kts | 280° |
| 2026-04-18 14:46 | 36.63295 | -84.19943 | 28020 ft | 414 kts | 280° |
| 2026-04-18 14:46 | 36.64440 | -84.27165 | 27999 ft | 415 kts | 280° |
| 2026-04-18 14:46 | 36.65010 | -84.30750 | 28000 ft | 414 kts | 280° |
| 2026-04-18 14:47 | 36.65575 | -84.34325 | 28000 ft | 415 kts | 280° |
| 2026-04-18 14:47 | 36.66143 | -84.37931 | 28000 ft | 414 kts | 280° |
| 2026-04-18 14:47 | 36.66708 | -84.41505 | 27999 ft | 414 kts | 280° |
| 2026-04-18 14:47 | 36.67270 | -84.45091 | 28000 ft | 413 kts | 280° |
| 2026-04-18 14:48 | 36.67832 | -84.48676 | 27999 ft | 414 kts | 279° |
| 2026-04-18 14:48 | 36.68402 | -84.52314 | 28000 ft | 414 kts | 279° |
| 2026-04-18 14:48 | 36.68959 | -84.55888 | 28000 ft | 414 kts | 279° |
| 2026-04-18 14:48 | 36.69520 | -84.59495 | 27999 ft | 414 kts | 279° |
| 2026-04-18 14:49 | 36.70075 | -84.63065 | 27999 ft | 414 kts | 279° |
| 2026-04-18 14:49 | 36.70633 | -84.66660 | 28000 ft | 414 kts | 279° |
| 2026-04-18 14:49 | 36.71189 | -84.70261 | 28000 ft | 415 kts | 279° |
| 2026-04-18 14:49 | 36.71743 | -84.73867 | 28000 ft | 414 kts | 279° |
| 2026-04-18 14:50 | 36.72297 | -84.77484 | 27999 ft | 414 kts | 279° |
| 2026-04-18 14:50 | 36.72854 | -84.81101 | 28000 ft | 414 kts | 279° |
| 2026-04-18 14:50 | 36.73401 | -84.84675 | 27999 ft | 414 kts | 279° |
| 2026-04-18 14:50 | 36.73956 | -84.88306 | 27999 ft | 413 kts | 279° |
| 2026-04-18 14:51 | 36.74500 | -84.91877 | 28000 ft | 413 kts | 279° |
| 2026-04-18 14:51 | 36.75046 | -84.95451 | 28000 ft | 413 kts | 279° |
| 2026-04-18 14:51 | 36.75596 | -84.99066 | 27999 ft | 414 kts | 279° |
| 2026-04-18 14:51 | 36.76143 | -85.02669 | 27998 ft | 414 kts | 279° |
| 2026-04-18 14:52 | 36.76688 | -85.06271 | 27996 ft | 414 kts | 279° |
| 2026-04-18 14:52 | 36.77233 | -85.09881 | 27995 ft | 414 kts | 279° |
| 2026-04-18 14:52 | 36.77776 | -85.13474 | 27994 ft | 414 kts | 278° |
| 2026-04-18 14:52 | 36.78320 | -85.17068 | 27992 ft | 413 kts | 278° |
| 2026-04-18 14:53 | 36.78862 | -85.20677 | 27990 ft | 413 kts | 278° |
| 2026-04-18 14:53 | 36.79394 | -85.24229 | 27990 ft | 413 kts | 278° |
| 2026-04-18 14:53 | 36.79930 | -85.27819 | 27990 ft | 413 kts | 278° |
| 2026-04-18 14:53 | 36.80472 | -85.31449 | 27990 ft | 413 kts | 278° |
| 2026-04-18 14:54 | 36.81000 | -85.34998 | 27990 ft | 413 kts | 278° |
| 2026-04-18 14:54 | 36.81536 | -85.38596 | 27990 ft | 413 kts | 278° |
| 2026-04-18 14:54 | 36.82068 | -85.42174 | 27990 ft | 413 kts | 278° |
| 2026-04-18 14:54 | 36.82607 | -85.45812 | 27990 ft | 412 kts | 278° |
| 2026-04-18 14:55 | 36.83133 | -85.49364 | 27990 ft | 412 kts | 278° |
| 2026-04-18 14:55 | 36.83662 | -85.52953 | 27990 ft | 412 kts | 278° |
| 2026-04-18 14:55 | 36.84189 | -85.56541 | 27990 ft | 412 kts | 278° |
| 2026-04-18 14:55 | 36.84718 | -85.60146 | 27990 ft | 412 kts | 278° |
| 2026-04-18 14:56 | 36.85245 | -85.63756 | 27990 ft | 412 kts | 278° |
| 2026-04-18 14:56 | 36.85768 | -85.67346 | 27991 ft | 413 kts | 278° |
| 2026-04-18 14:56 | 36.86289 | -85.70944 | 27990 ft | 412 kts | 278° |
| 2026-04-18 14:56 | 36.86805 | -85.74506 | 27990 ft | 412 kts | 278° |
| 2026-04-18 14:57 | 36.87323 | -85.78093 | 27990 ft | 412 kts | 278° |
| 2026-04-18 14:57 | 36.87844 | -85.81699 | 27990 ft | 412 kts | 278° |
| 2026-04-18 14:57 | 36.88360 | -85.85268 | 27990 ft | 412 kts | 278° |
| 2026-04-18 14:57 | 36.88898 | -85.88993 | 27991 ft | 412 kts | 278° |
| 2026-04-18 14:58 | 36.89411 | -85.92570 | 27990 ft | 413 kts | 278° |
| 2026-04-18 14:58 | 36.89926 | -85.96156 | 27992 ft | 412 kts | 278° |
| 2026-04-18 14:58 | 36.90438 | -85.99739 | 27995 ft | 412 kts | 278° |
| 2026-04-18 14:58 | 36.90961 | -86.03348 | 27998 ft | 412 kts | 277° |
| 2026-04-18 14:59 | 36.91474 | -86.06929 | 28000 ft | 411 kts | 277° |
| 2026-04-18 14:59 | 36.92493 | -86.14110 | 28006 ft | 411 kts | 277° |
| 2026-04-18 15:00 | 36.93504 | -86.21273 | 28009 ft | 411 kts | 277° |
| 2026-04-18 15:00 | 36.94511 | -86.28445 | 28009 ft | 411 kts | 277° |
| 2026-04-18 15:01 | 36.95517 | -86.35619 | 28008 ft | 412 kts | 277° |
| 2026-04-18 15:01 | 36.96524 | -86.42786 | 28008 ft | 412 kts | 278° |
| 2026-04-18 15:02 | 36.97916 | -86.49905 | 28009 ft | 414 kts | 281° |
| 2026-04-18 15:02 | 36.99393 | -86.56992 | 28008 ft | 413 kts | 281° |
| 2026-04-18 15:03 | 37.00854 | -86.64090 | 28008 ft | 413 kts | 281° |
| 2026-04-18 15:03 | 37.02287 | -86.71181 | 28009 ft | 413 kts | 280° |
| 2026-04-18 15:04 | 37.03716 | -86.78288 | 28009 ft | 413 kts | 280° |
| 2026-04-18 15:04 | 37.05138 | -86.85392 | 28009 ft | 413 kts | 280° |
| 2026-04-18 15:05 | 37.06565 | -86.92533 | 28009 ft | 413 kts | 280° |
| 2026-04-18 15:05 | 37.07976 | -86.99622 | 28009 ft | 414 kts | 280° |
| 2026-04-18 15:06 | 37.09386 | -87.06731 | 28008 ft | 414 kts | 280° |
| 2026-04-18 15:06 | 37.10803 | -87.13902 | 28008 ft | 414 kts | 280° |
| 2026-04-18 15:07 | 37.12197 | -87.20998 | 28009 ft | 415 kts | 280° |
| 2026-04-18 15:07 | 37.13607 | -87.28171 | 28007 ft | 416 kts | 280° |
| 2026-04-18 15:08 | 37.15008 | -87.35331 | 28006 ft | 416 kts | 280° |
| 2026-04-18 15:08 | 37.16412 | -87.42525 | 28004 ft | 416 kts | 279° |
| 2026-04-18 15:09 | 37.17810 | -87.49728 | 28002 ft | 416 kts | 279° |
| 2026-04-18 15:09 | 37.19198 | -87.56903 | 28002 ft | 417 kts | 279° |
| 2026-04-18 15:10 | 37.20596 | -87.64148 | 27999 ft | 419 kts | 279° |
| 2026-04-18 15:10 | 37.21289 | -87.67749 | 27998 ft | 419 kts | 279° |
| 2026-04-18 15:10 | 37.21978 | -87.71348 | 27998 ft | 419 kts | 279° |
| 2026-04-18 15:10 | 37.22677 | -87.75010 | 27996 ft | 419 kts | 279° |
| 2026-04-18 15:11 | 37.23371 | -87.78659 | 27996 ft | 420 kts | 279° |
| 2026-04-18 15:11 | 37.24059 | -87.82258 | 27995 ft | 420 kts | 279° |
| 2026-04-18 15:11 | 37.24759 | -87.85934 | 27994 ft | 420 kts | 279° |
| 2026-04-18 15:11 | 37.25448 | -87.89557 | 27992 ft | 420 kts | 279° |
| 2026-04-18 15:12 | 37.26136 | -87.93179 | 27990 ft | 421 kts | 279° |
| 2026-04-18 15:12 | 37.26826 | -87.96822 | 27988 ft | 421 kts | 279° |
| 2026-04-18 15:12 | 37.27520 | -88.00494 | 27986 ft | 422 kts | 278° |
| 2026-04-18 15:12 | 37.28220 | -88.04127 | 27984 ft | 422 kts | 278° |
| 2026-04-18 15:13 | 37.28917 | -88.07812 | 27981 ft | 421 kts | 278° |
| 2026-04-18 15:13 | 37.29600 | -88.11434 | 27987 ft | 415 kts | 278° |
| 2026-04-18 15:13 | 37.30294 | -88.14970 | 27970 ft | 401 kts | 277° |
| 2026-04-18 15:13 | 37.30936 | -88.18396 | 27983 ft | 399 kts | 277° |
| 2026-04-18 15:14 | 37.31579 | -88.21903 | 27985 ft | 403 kts | 277° |
| 2026-04-18 15:14 | 37.32222 | -88.25400 | 27983 ft | 405 kts | 277° |
| 2026-04-18 15:14 | 37.32865 | -88.28883 | 27980 ft | 405 kts | 277° |
| 2026-04-18 15:15 | 37.34168 | -88.35911 | 27981 ft | 403 kts | 277° |
| 2026-04-18 15:15 | 37.34812 | -88.39392 | 27981 ft | 403 kts | 277° |
| 2026-04-18 15:15 | 37.35464 | -88.42915 | 27981 ft | 403 kts | 277° |
| 2026-04-18 15:15 | 37.36108 | -88.46400 | 27982 ft | 403 kts | 277° |
| 2026-04-18 15:16 | 37.36760 | -88.49926 | 27981 ft | 403 kts | 277° |
| 2026-04-18 15:16 | 37.37398 | -88.53391 | 27981 ft | 402 kts | 277° |
| 2026-04-18 15:16 | 37.38042 | -88.56876 | 27982 ft | 403 kts | 277° |
| 2026-04-18 15:16 | 37.38687 | -88.60381 | 27982 ft | 403 kts | 277° |
| 2026-04-18 15:17 | 37.39329 | -88.63889 | 27981 ft | 402 kts | 277° |
| 2026-04-18 15:17 | 37.39962 | -88.67358 | 27982 ft | 402 kts | 276° |
| 2026-04-18 15:17 | 37.40600 | -88.70877 | 27981 ft | 402 kts | 276° |
| 2026-04-18 15:17 | 37.41235 | -88.74377 | 27981 ft | 402 kts | 276° |
| 2026-04-18 15:18 | 37.41868 | -88.77859 | 27981 ft | 401 kts | 276° |
| 2026-04-18 15:18 | 37.42500 | -88.81345 | 27981 ft | 401 kts | 276° |
| 2026-04-18 15:18 | 37.43128 | -88.84805 | 27990 ft | 400 kts | 276° |
| 2026-04-18 15:18 | 37.43759 | -88.88294 | 28001 ft | 399 kts | 276° |
| 2026-04-18 15:19 | 37.45021 | -88.95281 | 28023 ft | 399 kts | 276° |
| 2026-04-18 15:19 | 37.45403 | -89.02542 | 28053 ft | 389 kts | 262° |
| 2026-04-18 15:20 | 37.45175 | -89.09444 | 28054 ft | 387 kts | 263° |
| 2026-04-18 15:20 | 37.45056 | -89.16273 | 28054 ft | 388 kts | 264° |
| 2026-04-18 15:21 | 37.45005 | -89.23223 | 28052 ft | 390 kts | 267° |
| 2026-04-18 15:21 | 37.45940 | -89.30173 | 28056 ft | 397 kts | 275° |
| 2026-04-18 15:22 | 37.47132 | -89.37104 | 28054 ft | 396 kts | 275° |
| 2026-04-18 15:22 | 37.48303 | -89.44014 | 28054 ft | 395 kts | 275° |
| 2026-04-18 15:23 | 37.49462 | -89.50916 | 28055 ft | 396 kts | 274° |
| 2026-04-18 15:23 | 37.50608 | -89.57809 | 28054 ft | 394 kts | 274° |
| 2026-04-18 15:24 | 37.51749 | -89.64708 | 28055 ft | 393 kts | 274° |
| 2026-04-18 15:24 | 37.52869 | -89.71551 | 28054 ft | 392 kts | 273° |
| 2026-04-18 15:25 | 37.53992 | -89.78426 | 28055 ft | 393 kts | 273° |
| 2026-04-18 15:25 | 37.55114 | -89.85313 | 28054 ft | 392 kts | 273° |
| 2026-04-18 15:26 | 37.56231 | -89.92194 | 28055 ft | 392 kts | 273° |
| 2026-04-18 15:26 | 37.57341 | -89.99048 | 28054 ft | 392 kts | 273° |
| 2026-04-18 15:27 | 37.58453 | -90.05909 | 28060 ft | 391 kts | 273° |
| 2026-04-18 15:27 | 37.59546 | -90.12723 | 28071 ft | 391 kts | 273° |
| 2026-04-18 15:28 | 37.60646 | -90.19607 | 28082 ft | 391 kts | 273° |
| 2026-04-18 15:28 | 37.61739 | -90.26463 | 28091 ft | 391 kts | 273° |
| 2026-04-18 15:29 | 37.62822 | -90.33296 | 28091 ft | 390 kts | 273° |
| 2026-04-18 15:29 | 37.63909 | -90.40153 | 28091 ft | 390 kts | 273° |
| 2026-04-18 15:30 | 37.64986 | -90.46967 | 28091 ft | 389 kts | 273° |
| 2026-04-18 15:30 | 37.66063 | -90.53826 | 28091 ft | 389 kts | 273° |
| 2026-04-18 15:31 | 37.67134 | -90.60651 | 28091 ft | 390 kts | 273° |
| 2026-04-18 15:31 | 37.68194 | -90.67480 | 28091 ft | 388 kts | 272° |
| 2026-04-18 15:32 | 37.69248 | -90.74317 | 28091 ft | 387 kts | 272° |
| 2026-04-18 15:32 | 37.70297 | -90.81135 | 28092 ft | 387 kts | 272° |
| 2026-04-18 15:33 | 37.71333 | -90.87869 | 28091 ft | 386 kts | 272° |
| 2026-04-18 15:33 | 37.72376 | -90.94669 | 28091 ft | 386 kts | 272° |
| 2026-04-18 15:34 | 37.73417 | -91.01491 | 28095 ft | 385 kts | 272° |
| 2026-04-18 15:34 | 37.74449 | -91.08271 | 28102 ft | 384 kts | 272° |
| 2026-04-18 15:35 | 37.75471 | -91.15014 | 28111 ft | 384 kts | 272° |
| 2026-04-18 15:35 | 37.76492 | -91.21773 | 28119 ft | 383 kts | 272° |
| 2026-04-18 15:36 | 37.77501 | -91.28492 | 28119 ft | 382 kts | 272° |
| 2026-04-18 15:36 | 37.78513 | -91.35252 | 28120 ft | 381 kts | 272° |
| 2026-04-18 15:37 | 37.79510 | -91.41937 | 28122 ft | 380 kts | 272° |
| 2026-04-18 15:37 | 37.80505 | -91.48630 | 28123 ft | 380 kts | 272° |
| 2026-04-18 15:38 | 37.81493 | -91.55315 | 28124 ft | 380 kts | 272° |
| 2026-04-18 15:38 | 37.82481 | -91.62024 | 28125 ft | 379 kts | 272° |
| 2026-04-18 15:39 | 37.83459 | -91.68726 | 28127 ft | 378 kts | 271° |
| 2026-04-18 15:39 | 37.84423 | -91.75374 | 28128 ft | 377 kts | 271° |
| 2026-04-18 15:40 | 37.85384 | -91.82021 | 28129 ft | 377 kts | 271° |
| 2026-04-18 15:40 | 37.86353 | -91.88715 | 28130 ft | 376 kts | 271° |
| 2026-04-18 15:41 | 37.87307 | -91.95335 | 28134 ft | 376 kts | 271° |
| 2026-04-18 15:41 | 37.88267 | -92.01991 | 28145 ft | 377 kts | 271° |
| 2026-04-18 15:42 | 37.89220 | -92.08672 | 28156 ft | 377 kts | 271° |
| 2026-04-18 15:42 | 37.90170 | -92.15342 | 28167 ft | 377 kts | 271° |
| 2026-04-18 15:43 | 37.91119 | -92.22040 | 28172 ft | 377 kts | 271° |
| 2026-04-18 15:43 | 37.92058 | -92.28700 | 28173 ft | 378 kts | 271° |
| 2026-04-18 15:44 | 37.93003 | -92.35414 | 28173 ft | 378 kts | 271° |
| 2026-04-18 15:44 | 37.93943 | -92.42127 | 28174 ft | 379 kts | 271° |
| 2026-04-18 15:45 | 37.94878 | -92.48824 | 28173 ft | 379 kts | 271° |
| 2026-04-18 15:45 | 37.95807 | -92.55521 | 28173 ft | 380 kts | 271° |
| 2026-04-18 15:46 | 37.96739 | -92.62273 | 28173 ft | 379 kts | 271° |
| 2026-04-18 15:46 | 37.97661 | -92.69009 | 28173 ft | 379 kts | 271° |
| 2026-04-18 15:47 | 37.98573 | -92.75712 | 28173 ft | 380 kts | 271° |
| 2026-04-18 15:47 | 37.99494 | -92.82484 | 28173 ft | 380 kts | 271° |
| 2026-04-18 15:48 | 38.00415 | -92.89252 | 28174 ft | 380 kts | 271° |
| 2026-04-18 15:48 | 38.01324 | -92.95971 | 28180 ft | 379 kts | 271° |
| 2026-04-18 15:49 | 38.02228 | -93.02713 | 28188 ft | 381 kts | 271° |
| 2026-04-18 15:49 | 38.03133 | -93.09466 | 28196 ft | 381 kts | 271° |
| 2026-04-18 15:50 | 38.04042 | -93.16277 | 28201 ft | 381 kts | 271° |
| 2026-04-18 15:50 | 38.04938 | -93.23025 | 28201 ft | 382 kts | 271° |
| 2026-04-18 15:51 | 38.05837 | -93.29832 | 28201 ft | 383 kts | 271° |
| 2026-04-18 15:51 | 38.06735 | -93.36652 | 28201 ft | 383 kts | 271° |
| 2026-04-18 15:52 | 38.07634 | -93.43480 | 28200 ft | 384 kts | 271° |
| 2026-04-18 15:52 | 38.08518 | -93.50290 | 28200 ft | 383 kts | 271° |
| 2026-04-18 15:53 | 38.09405 | -93.57134 | 28201 ft | 384 kts | 271° |
| 2026-04-18 15:53 | 38.10294 | -93.63979 | 28200 ft | 385 kts | 272° |
| 2026-04-18 15:54 | 38.11925 | -93.70741 | 28198 ft | 404 kts | 287° |
| 2026-04-18 15:54 | 38.13468 | -93.73840 | 28205 ft | 417 kts | 295° |
| 2026-04-18 15:54 | 38.15427 | -93.76723 | 28199 ft | 430 kts | 304° |
| 2026-04-18 15:55 | 38.17889 | -93.79210 | 28200 ft | 450 kts | 316° |
| 2026-04-18 15:55 | 38.20746 | -93.81152 | 28208 ft | 462 kts | 323° |
| 2026-04-18 15:55 | 38.26719 | -93.84570 | 28199 ft | 464 kts | 324° |
| 2026-04-18 15:56 | 38.29719 | -93.86262 | 28006 ft | 458 kts | 324° |
| 2026-04-18 15:56 | 38.32684 | -93.87940 | 27019 ft | 460 kts | 324° |
| 2026-04-18 15:56 | 38.35644 | -93.89627 | 26049 ft | 458 kts | 324° |
| 2026-04-18 15:56 | 38.38577 | -93.91294 | 24504 ft | 461 kts | 324° |
| 2026-04-18 15:57 | 38.41552 | -93.92998 | 23552 ft | 459 kts | 324° |
| 2026-04-18 15:57 | 38.44531 | -93.94700 | 22699 ft | 453 kts | 324° |
| 2026-04-18 15:57 | 38.47427 | -93.96350 | 21964 ft | 446 kts | 324° |
| 2026-04-18 15:57 | 38.50275 | -93.97977 | 21171 ft | 440 kts | 324° |
| 2026-04-18 15:58 | 38.53095 | -93.99590 | 20387 ft | 434 kts | 324° |
| 2026-04-18 15:58 | 38.55895 | -94.01196 | 19596 ft | 428 kts | 324° |
| 2026-04-18 15:58 | 38.58650 | -94.02779 | 18817 ft | 422 kts | 324° |
| 2026-04-18 15:58 | 38.61332 | -94.04321 | 18053 ft | 416 kts | 324° |
| 2026-04-18 15:59 | 38.63984 | -94.05857 | 17384 ft | 406 kts | 324° |
| 2026-04-18 15:59 | 38.66505 | -94.07516 | 16590 ft | 397 kts | 321° |
| 2026-04-18 15:59 | 38.68872 | -94.09367 | 15875 ft | 383 kts | 316° |
| 2026-04-18 15:59 | 38.71016 | -94.11448 | 15111 ft | 375 kts | 314° |
| 2026-04-18 16:00 | 38.73048 | -94.13564 | 14297 ft | 371 kts | 314° |
| 2026-04-18 16:00 | 38.75045 | -94.15677 | 13549 ft | 365 kts | 314° |
| 2026-04-18 16:00 | 38.77011 | -94.17776 | 12872 ft | 358 kts | 315° |
| 2026-04-18 16:00 | 38.78956 | -94.19853 | 12210 ft | 351 kts | 316° |
| 2026-04-18 16:01 | 38.80850 | -94.21881 | 11596 ft | 344 kts | 317° |
| 2026-04-18 16:01 | 38.82684 | -94.23850 | 11182 ft | 332 kts | 317° |
| 2026-04-18 16:01 | 38.84293 | -94.25923 | 10900 ft | 316 kts | 307° |
| 2026-04-18 16:01 | 38.85523 | -94.28223 | 10745 ft | 299 kts | 302° |
| 2026-04-18 16:02 | 38.86597 | -94.30474 | 10599 ft | 284 kts | 301° |
| 2026-04-18 16:02 | 38.87637 | -94.32653 | 10458 ft | 271 kts | 302° |
| 2026-04-18 16:02 | 38.88617 | -94.34690 | 10326 ft | 266 kts | 302° |
| 2026-04-18 16:02 | 38.89605 | -94.36736 | 10196 ft | 256 kts | 303° |
| 2026-04-18 16:03 | 38.90527 | -94.38639 | 10086 ft | 239 kts | 303° |
| 2026-04-18 16:03 | 38.91431 | -94.40502 | 9880 ft | 244 kts | 303° |
| 2026-04-18 16:03 | 38.92327 | -94.42358 | 9555 ft | 239 kts | 304° |
| 2026-04-18 16:03 | 38.93208 | -94.44180 | 9236 ft | 237 kts | 304° |
| 2026-04-18 16:04 | 38.94091 | -94.46004 | 8923 ft | 235 kts | 305° |
| 2026-04-18 16:04 | 38.94968 | -94.47812 | 8617 ft | 233 kts | 305° |
| 2026-04-18 16:04 | 38.95842 | -94.49612 | 8311 ft | 232 kts | 305° |
| 2026-04-18 16:04 | 38.96695 | -94.51372 | 8013 ft | 230 kts | 305° |
| 2026-04-18 16:05 | 38.97559 | -94.53162 | 7723 ft | 235 kts | 306° |
| 2026-04-18 16:05 | 38.98430 | -94.54968 | 7404 ft | 233 kts | 306° |
| 2026-04-18 16:05 | 38.99293 | -94.56757 | 7108 ft | 231 kts | 306° |
| 2026-04-18 16:05 | 39.00146 | -94.58525 | 6804 ft | 229 kts | 306° |
| 2026-04-18 16:06 | 39.00997 | -94.60274 | 6512 ft | 226 kts | 306° |
| 2026-04-18 16:06 | 39.01835 | -94.62020 | 6217 ft | 224 kts | 306° |
| 2026-04-18 16:06 | 39.02700 | -94.63827 | 5959 ft | 224 kts | 307° |
| 2026-04-18 16:06 | 39.03553 | -94.65588 | 5636 ft | 229 kts | 306° |
| 2026-04-18 16:07 | 39.04400 | -94.67359 | 5337 ft | 227 kts | 305° |
| 2026-04-18 16:07 | 39.05231 | -94.69089 | 5242 ft | 216 kts | 306° |
| 2026-04-18 16:07 | 39.06000 | -94.70699 | 5198 ft | 202 kts | 306° |
| 2026-04-18 16:07 | 39.06732 | -94.72211 | 5098 ft | 189 kts | 308° |
| 2026-04-18 16:08 | 39.07645 | -94.73402 | 4976 ft | 175 kts | 332° |
| 2026-04-18 16:08 | 39.08800 | -94.73885 | 4782 ft | 173 kts | 346° |
| 2026-04-18 16:08 | 39.10022 | -94.74244 | 4552 ft | 176 kts | 345° |
| 2026-04-18 16:08 | 39.11240 | -94.74630 | 4346 ft | 175 kts | 344° |
| 2026-04-18 16:09 | 39.12405 | -94.75023 | 4155 ft | 165 kts | 343° |
| 2026-04-18 16:09 | 39.13516 | -94.75264 | 3948 ft | 158 kts | 0° |
| 2026-04-18 16:09 | 39.14619 | -94.74953 | 3675 ft | 160 kts | 10° |
| 2026-04-18 16:09 | 39.15712 | -94.74580 | 3377 ft | 158 kts | 8° |
| 2026-04-18 16:10 | 39.16799 | -94.74256 | 3386 ft | 156 kts | 7° |
| 2026-04-18 16:10 | 39.17921 | -94.73925 | 3112 ft | 162 kts | 8° |
| 2026-04-18 16:10 | 39.19008 | -94.73605 | 2891 ft | 155 kts | 7° |
| 2026-04-18 16:10 | 39.20061 | -94.73293 | 2683 ft | 146 kts | 9° |
| 2026-04-18 16:11 | 39.21049 | -94.73002 | 2526 ft | 140 kts | 8° |
| 2026-04-18 16:11 | 39.22021 | -94.72716 | 2297 ft | 140 kts | 9° |
| 2026-04-18 16:11 | 39.22987 | -94.72429 | 2112 ft | 142 kts | 10° |
| 2026-04-18 16:11 | 39.23943 | -94.72144 | 1906 ft | 139 kts | 8° |
| 2026-04-18 16:12 | 39.24935 | -94.71864 | 1741 ft | 143 kts | 9° |
| 2026-04-18 16:12 | 39.25902 | -94.71554 | 1582 ft | 138 kts | 9° |
| 2026-04-18 16:12 | 39.26868 | -94.71278 | 1316 ft | 140 kts | 8° |
| 2026-04-18 16:12 | 39.27828 | -94.70992 | 1120 ft | 135 kts | 8° |
| 2026-04-18 16:13 | 39.28736 | -94.70724 | 1034 ft | 121 kts | 11° |
| 2026-04-18 16:13 | 39.29346 | -94.70544 | 1032 ft | 56 kts | 11° |